createdAt,value
2023-02-16T00:00:59.223Z,16.75
2023-02-16T00:03:25.941Z,16.25
2023-02-16T00:05:52.760Z,18.60
2023-02-16T00:08:19.702Z,16.83
2023-02-16T00:11:06.360Z,16.58
2023-02-16T00:13:45.400Z,15.95
2023-02-16T00:16:12.214Z,15.93
2023-02-16T00:18:38.926Z,16.25
2023-02-16T00:21:05.872Z,16.08
2023-02-16T00:23:32.704Z,16.80
2023-02-16T00:25:59.599Z,15.40
2023-02-16T00:28:26.331Z,16.65
2023-02-16T00:30:53.146Z,15.68
2023-02-16T00:33:19.944Z,14.93
2023-02-16T00:35:46.723Z,15.50
2023-02-16T00:38:15.869Z,16.38
2023-02-16T00:40:42.580Z,14.82
2023-02-16T00:43:10.550Z,15.02
2023-02-16T00:45:38.234Z,14.57
2023-02-16T00:48:04.966Z,15.07
2023-02-16T00:50:31.800Z,15.68
2023-02-16T00:52:58.646Z,15.30
2023-02-16T00:55:25.541Z,15.27
2023-02-16T00:57:52.290Z,15.27
2023-02-16T01:00:19.022Z,15.50
2023-02-16T01:02:45.756Z,14.70
2023-02-16T01:05:12.452Z,14.27
2023-02-16T01:07:57.727Z,11.80
2023-02-16T01:10:43.361Z,10.95
2023-02-16T01:13:10.100Z,9.95
2023-02-16T01:15:36.963Z,9.43
2023-02-16T01:18:03.813Z,9.80
2023-02-16T01:20:30.700Z,10.80
2023-02-16T01:22:57.657Z,10.60
2023-02-16T01:25:24.390Z,10.68
2023-02-16T01:27:53.084Z,10.82
2023-02-16T01:30:19.819Z,10.60
2023-02-16T01:32:52.639Z,11.07
2023-02-16T01:35:19.398Z,10.65
2023-02-16T01:37:46.073Z,10.90
2023-02-16T01:40:12.792Z,10.88
2023-02-16T01:42:39.651Z,11.65
2023-02-16T01:45:06.374Z,10.55
2023-02-16T01:47:33.099Z,10.27
2023-02-16T01:50:02.139Z,10.95
2023-02-16T01:52:29.935Z,11.02
2023-02-16T01:54:56.621Z,11.20
2023-02-16T01:57:23.346Z,10.23
2023-02-16T01:59:50.128Z,9.02
2023-02-16T02:02:16.822Z,8.50
2023-02-16T02:05:02.290Z,8.68
2023-02-16T02:07:29.027Z,7.68
2023-02-16T02:09:55.848Z,8.20
2023-02-16T02:12:22.567Z,6.95
2023-02-16T02:14:49.406Z,6.63
2023-02-16T02:17:18.539Z,6.15
2023-02-16T02:19:45.268Z,5.55
2023-02-16T02:22:30.958Z,5.40
2023-02-16T02:24:57.686Z,5.07
2023-02-16T02:27:24.579Z,4.93
2023-02-16T02:29:52.148Z,4.43
2023-02-16T02:32:19.432Z,4.03
2023-02-16T02:34:46.149Z,4.05
2023-02-16T02:37:12.939Z,4.18
2023-02-16T02:39:39.703Z,3.47
2023-02-16T02:42:06.485Z,3.35
2023-02-16T02:44:41.387Z,3.22
2023-02-16T02:47:08.272Z,3.10
2023-02-16T02:49:35.931Z,2.75
2023-02-16T02:52:02.750Z,3.72
2023-02-16T02:54:49.055Z,2.47
2023-02-16T02:57:34.681Z,2.72
2023-02-16T03:00:21.026Z,3.20
2023-02-16T03:02:48.468Z,2.38
2023-02-16T03:05:16.073Z,2.45
2023-02-16T03:07:49.121Z,2.30
2023-02-16T03:10:34.429Z,2.70
2023-02-16T03:13:01.137Z,2.30
2023-02-16T03:15:27.872Z,2.10
2023-02-16T03:18:13.336Z,2.55
2023-02-16T03:20:58.909Z,2.03
2023-02-16T03:23:44.544Z,2.00
2023-02-16T03:26:31.505Z,2.17
2023-02-16T03:29:16.955Z,2.47
2023-02-16T03:31:43.686Z,1.88
2023-02-16T03:34:10.440Z,1.75
2023-02-16T03:36:37.272Z,1.90
2023-02-16T03:39:04.016Z,2.03
2023-02-16T03:41:30.779Z,2.05
2023-02-16T03:43:57.496Z,2.15
2023-02-16T03:46:24.203Z,1.95
2023-02-16T03:48:50.945Z,2.10
2023-02-16T03:51:17.722Z,2.03
2023-02-16T03:53:44.453Z,2.10
2023-02-16T03:56:11.195Z,2.53
2023-02-16T03:58:37.985Z,2.80
2023-02-16T04:01:05.011Z,2.97
2023-02-16T04:03:32.025Z,2.40
2023-02-16T04:05:58.743Z,2.70
2023-02-16T04:08:25.536Z,2.83
2023-02-16T04:10:52.242Z,2.85
2023-02-16T04:13:18.946Z,2.80
2023-02-16T04:15:45.727Z,2.45
2023-02-16T04:18:12.425Z,2.50
2023-02-16T04:20:39.314Z,2.78
2023-02-16T04:23:06.060Z,2.40
2023-02-16T04:25:32.737Z,2.63
2023-02-16T04:27:59.466Z,2.45
2023-02-16T04:30:26.272Z,2.58
2023-02-16T04:32:53.020Z,2.78
2023-02-16T04:35:19.729Z,2.58
2023-02-16T04:37:46.415Z,2.33
2023-02-16T04:40:13.842Z,2.70
2023-02-16T04:42:40.627Z,2.33
2023-02-16T04:45:07.291Z,2.85
2023-02-16T04:47:34.022Z,2.65
2023-02-16T04:50:00.684Z,2.45
2023-02-16T04:52:27.443Z,2.72
2023-02-16T04:54:54.152Z,2.70
2023-02-16T04:57:22.577Z,2.42
2023-02-16T04:59:49.395Z,2.80
2023-02-16T05:02:16.110Z,2.40
2023-02-16T05:04:42.860Z,2.70
2023-02-16T05:07:09.671Z,2.30
2023-02-16T05:09:36.353Z,2.67
2023-02-16T05:12:21.921Z,2.30
2023-02-16T05:14:48.750Z,2.33
2023-02-16T05:17:15.583Z,2.13
2023-02-16T05:19:42.307Z,2.22
2023-02-16T05:22:09.053Z,2.60
2023-02-16T05:24:36.038Z,2.25
2023-02-16T05:27:03.066Z,2.85
2023-02-16T05:29:29.884Z,2.50
2023-02-16T05:31:56.711Z,2.35
2023-02-16T05:34:23.467Z,2.15
2023-02-16T05:36:50.122Z,2.50
2023-02-16T05:39:16.873Z,2.40
2023-02-16T05:41:43.584Z,2.35
2023-02-16T05:44:10.352Z,2.97
2023-02-16T05:46:37.178Z,2.60
2023-02-16T05:49:03.956Z,2.58
2023-02-16T05:51:30.692Z,2.70
2023-02-16T05:53:57.440Z,2.47
2023-02-16T05:56:24.152Z,2.33
2023-02-16T05:58:50.954Z,2.80
2023-02-16T06:01:17.714Z,2.83
2023-02-16T06:03:44.501Z,2.70
2023-02-16T06:06:11.318Z,2.45
2023-02-16T06:08:38.032Z,2.45
2023-02-16T06:11:07.096Z,2.33
2023-02-16T06:13:34.420Z,3.03
2023-02-16T06:16:01.206Z,3.17
2023-02-16T06:18:27.968Z,2.72
2023-02-16T06:20:54.662Z,3.45
2023-02-16T06:23:21.397Z,3.85
2023-02-16T06:25:48.069Z,3.88
2023-02-16T06:28:14.748Z,4.82
2023-02-16T06:30:42.721Z,5.00
2023-02-16T06:33:09.471Z,5.43
2023-02-16T06:35:36.153Z,6.45
2023-02-16T06:38:02.880Z,6.70
2023-02-16T06:40:29.605Z,7.45
2023-02-16T06:42:56.358Z,7.32
2023-02-16T06:45:23.066Z,7.88
2023-02-16T06:47:49.823Z,7.85
2023-02-16T06:50:17.802Z,8.60
2023-02-16T06:52:44.592Z,8.40
2023-02-16T06:55:11.537Z,8.63
2023-02-16T06:57:38.287Z,8.55
2023-02-16T07:00:05.917Z,8.90
2023-02-16T07:02:32.632Z,8.30
2023-02-16T07:04:59.366Z,8.40
2023-02-16T07:07:26.142Z,8.60
2023-02-16T07:09:52.912Z,7.72
2023-02-16T07:12:19.587Z,8.70
2023-02-16T07:14:46.343Z,8.32
2023-02-16T07:17:13.107Z,7.35
2023-02-16T07:19:39.815Z,6.88
2023-02-16T07:22:06.560Z,7.10
2023-02-16T07:24:33.269Z,6.45
2023-02-16T07:26:59.973Z,6.70
2023-02-16T07:29:26.762Z,7.55
2023-02-16T07:31:54.618Z,6.63
2023-02-16T07:34:22.128Z,7.55
2023-02-16T07:36:49.130Z,7.40
2023-02-16T07:39:15.810Z,6.65
2023-02-16T07:41:42.588Z,6.50
2023-02-16T07:44:09.371Z,6.38
2023-02-16T07:46:36.092Z,6.20
2023-02-16T07:49:02.806Z,5.88
2023-02-16T07:51:29.528Z,5.22
2023-02-16T07:53:56.219Z,4.95
2023-02-16T07:56:22.940Z,4.47
2023-02-16T07:58:49.693Z,3.90
2023-02-16T08:01:17.541Z,3.90
2023-02-16T08:03:44.250Z,3.60
2023-02-16T08:06:10.952Z,19.25
2023-02-16T08:08:37.676Z,3.90
2023-02-16T08:11:04.635Z,3.03
2023-02-16T08:13:31.492Z,2.40
2023-02-16T08:15:58.269Z,2.55
2023-02-16T08:18:24.953Z,2.20
2023-02-16T08:21:03.742Z,2.00
2023-02-16T08:23:31.606Z,1.98
2023-02-16T08:25:59.408Z,1.48
2023-02-16T08:28:28.879Z,1.27
2023-02-16T08:30:55.835Z,1.27
2023-02-16T08:33:22.591Z,1.00
2023-02-16T08:35:49.419Z,1.08
2023-02-16T08:38:17.382Z,1.30
2023-02-16T08:40:44.126Z,0.90
2023-02-16T08:43:10.866Z,1.20
2023-02-16T08:45:37.626Z,1.70
2023-02-16T08:48:04.350Z,1.25
2023-02-16T08:50:32.787Z,0.95
2023-02-16T08:52:59.531Z,1.20
2023-02-16T08:55:26.236Z,3.97
2023-02-16T08:57:52.984Z,1.13
2023-02-16T09:00:34.844Z,1.10
2023-02-16T09:03:02.177Z,0.98
2023-02-16T09:05:28.893Z,1.85
2023-02-16T09:07:55.680Z,1.38
2023-02-16T09:10:23.067Z,1.08
2023-02-16T09:12:49.997Z,1.35
2023-02-16T09:15:16.832Z,1.15
2023-02-16T09:17:43.613Z,0.93
2023-02-16T09:20:10.349Z,0.90
2023-02-16T09:22:37.052Z,0.80
2023-02-16T09:25:03.793Z,0.93
2023-02-16T09:27:31.229Z,1.13
2023-02-16T09:29:58.675Z,0.90
2023-02-16T09:32:27.803Z,1.08
2023-02-16T09:34:54.507Z,0.88
2023-02-16T09:37:21.229Z,1.00
2023-02-16T09:39:48.233Z,0.90
2023-02-16T09:42:15.068Z,1.00
2023-02-16T09:44:41.801Z,1.20
2023-02-16T09:47:08.958Z,21.38
2023-02-16T09:49:35.652Z,4.55
2023-02-16T09:52:02.397Z,1.40
2023-02-16T09:54:29.380Z,1.10
2023-02-16T09:56:56.097Z,1.40
2023-02-16T09:59:22.834Z,1.25
2023-02-16T10:01:49.550Z,1.30
2023-02-16T10:04:16.490Z,1.13
2023-02-16T10:06:43.258Z,19.15
2023-02-16T10:09:09.987Z,1.70
2023-02-16T10:11:45.664Z,1.23
2023-02-16T10:14:12.827Z,1.02
2023-02-16T10:16:39.554Z,1.20
2023-02-16T10:19:06.339Z,1.05
2023-02-16T10:21:33.061Z,2.67
2023-02-16T10:23:59.780Z,1.00
2023-02-16T10:26:26.505Z,1.10
2023-02-16T10:28:53.290Z,0.95
2023-02-16T10:31:20.141Z,1.63
2023-02-16T10:33:47.029Z,1.05
2023-02-16T10:36:13.705Z,0.95
2023-02-16T10:38:40.464Z,1.30
2023-02-16T10:41:07.278Z,1.10
2023-02-16T10:43:34.406Z,1.23
2023-02-16T10:46:01.990Z,1.40
2023-02-16T10:48:28.762Z,1.25
2023-02-16T10:50:56.062Z,2.65
2023-02-16T10:53:22.799Z,2.58
2023-02-16T10:55:49.490Z,1.60
2023-02-16T10:58:16.296Z,1.65
2023-02-16T11:00:43.158Z,1.90
2023-02-16T11:03:10.972Z,1.52
2023-02-16T11:05:38.290Z,1.65
2023-02-16T11:08:05.178Z,2.08
2023-02-16T11:10:31.905Z,1.90
2023-02-16T11:12:58.679Z,1.77
2023-02-16T11:15:26.060Z,2.08
2023-02-16T11:17:52.836Z,2.03
2023-02-16T11:20:19.687Z,1.83
2023-02-16T11:22:46.451Z,1.80
2023-02-16T11:25:13.176Z,1.75
2023-02-16T11:27:39.910Z,1.60
2023-02-16T11:30:06.611Z,1.63
2023-02-16T11:32:33.438Z,1.65
2023-02-16T11:35:00.371Z,1.50
2023-02-16T11:37:27.710Z,1.90
2023-02-16T11:39:54.496Z,1.42
2023-02-16T11:42:21.951Z,1.58
2023-02-16T11:44:48.757Z,1.70
2023-02-16T11:47:15.480Z,1.50
2023-02-16T11:49:42.252Z,1.70
2023-02-16T11:52:09.138Z,1.23
2023-02-16T11:54:35.885Z,1.10
2023-02-16T11:57:02.826Z,1.30
2023-02-16T11:59:29.899Z,1.10
2023-02-16T12:01:56.591Z,1.20
2023-02-16T12:04:23.335Z,1.05
2023-02-16T12:06:50.034Z,1.13
2023-02-16T12:09:17.197Z,1.05
2023-02-16T12:11:43.996Z,1.20
2023-02-16T12:14:10.732Z,1.10
2023-02-16T12:16:37.472Z,1.00
2023-02-16T12:19:04.280Z,1.70
2023-02-16T12:21:31.260Z,1.40
2023-02-16T12:23:58.425Z,1.70
2023-02-16T12:26:26.741Z,2.00
2023-02-16T12:28:53.470Z,1.67
2023-02-16T12:31:22.377Z,1.60
2023-02-16T12:33:49.706Z,1.60
2023-02-16T12:36:16.411Z,1.50
2023-02-16T12:38:43.156Z,1.30
2023-02-16T12:41:09.965Z,1.27
2023-02-16T12:43:36.735Z,1.20
2023-02-16T12:46:03.753Z,1.27
2023-02-16T12:48:30.893Z,1.52
2023-02-16T12:50:57.642Z,1.17
2023-02-16T12:53:27.603Z,1.85
2023-02-16T12:55:55.399Z,1.33
2023-02-16T12:58:22.425Z,1.35
2023-02-16T13:00:49.588Z,1.20
2023-02-16T13:03:16.557Z,1.30
2023-02-16T13:05:43.330Z,1.27
2023-02-16T13:08:10.528Z,1.00
2023-02-16T13:10:37.272Z,1.40
2023-02-16T13:13:03.964Z,14.63
2023-02-16T13:15:30.853Z,8.38
2023-02-16T13:17:57.598Z,1.20
2023-02-16T13:20:24.291Z,0.90
2023-02-16T13:22:51.036Z,0.85
2023-02-16T13:25:19.672Z,0.80
2023-02-16T13:27:47.847Z,0.80
2023-02-16T13:30:15.986Z,0.98
2023-02-16T13:32:42.888Z,0.90
2023-02-16T13:35:09.652Z,1.00
2023-02-16T13:37:37.371Z,1.10
2023-02-16T13:40:04.789Z,1.00
2023-02-16T13:42:33.001Z,2.10
2023-02-16T13:44:59.725Z,1.55
2023-02-16T13:47:26.890Z,1.38
2023-02-16T13:49:53.974Z,1.20
2023-02-16T13:52:20.713Z,1.20
2023-02-16T13:54:47.811Z,1.15
2023-02-16T13:57:14.507Z,1.20
2023-02-16T13:59:41.235Z,1.20
2023-02-16T14:02:08.056Z,1.10
2023-02-16T14:04:34.867Z,1.05
2023-02-16T14:07:01.726Z,1.35
2023-02-16T14:09:28.532Z,0.95
2023-02-16T14:11:55.264Z,1.30
2023-02-16T14:14:22.427Z,1.13
2023-02-16T14:16:49.523Z,1.15
2023-02-16T14:19:17.875Z,1.13
2023-02-16T14:21:44.731Z,1.33
2023-02-16T14:24:11.486Z,1.40
2023-02-16T14:26:38.226Z,1.50
2023-02-16T14:29:04.947Z,1.60
2023-02-16T14:31:31.937Z,1.63
2023-02-16T14:33:58.754Z,1.58
2023-02-16T14:36:27.231Z,2.00
2023-02-16T14:38:53.976Z,1.40
2023-02-16T14:41:20.654Z,1.63
2023-02-16T14:43:47.465Z,1.70
2023-02-16T14:46:14.666Z,2.20
2023-02-16T14:48:41.552Z,3.00
2023-02-16T14:51:10.026Z,2.60
2023-02-16T14:53:37.346Z,2.80
2023-02-16T14:56:04.369Z,2.70
2023-02-16T14:58:31.297Z,3.20
2023-02-16T15:00:58.159Z,2.42
2023-02-16T15:03:25.328Z,2.90
2023-02-16T15:05:52.235Z,2.67
2023-02-16T15:08:19.019Z,2.50
2023-02-16T15:10:48.793Z,1.60
2023-02-16T15:13:15.930Z,1.20
2023-02-16T15:15:42.735Z,1.67
2023-02-16T15:18:09.465Z,1.67
2023-02-16T15:20:36.582Z,1.70
2023-02-16T15:23:03.457Z,2.20
2023-02-16T15:25:30.786Z,2.25
2023-02-16T15:27:59.185Z,1.95
2023-02-16T15:30:25.993Z,2.45
2023-02-16T15:32:52.769Z,2.30
2023-02-16T15:35:19.584Z,2.83
2023-02-16T15:37:46.299Z,2.85
2023-02-16T15:40:24.995Z,2.35
2023-02-16T15:42:52.767Z,2.50
2023-02-16T15:45:19.481Z,2.40
2023-02-16T15:47:47.080Z,2.60
2023-02-16T15:50:14.334Z,1.77
2023-02-16T15:52:41.036Z,2.00
2023-02-16T15:55:09.275Z,2.40
2023-02-16T15:57:38.979Z,10.68
2023-02-16T16:00:06.270Z,3.35
2023-02-16T16:02:39.026Z,2.75
2023-02-16T16:05:05.950Z,2.83
2023-02-16T16:07:32.792Z,3.00
2023-02-16T16:09:59.569Z,2.42
2023-02-16T16:12:26.403Z,2.78
2023-02-16T16:14:53.298Z,2.85
2023-02-16T16:17:20.772Z,2.85
2023-02-16T16:19:47.557Z,2.55
2023-02-16T16:22:14.250Z,2.40
2023-02-16T16:24:45.231Z,2.70
2023-02-16T16:27:12.008Z,2.58
2023-02-16T16:29:38.827Z,2.22
2023-02-16T16:32:05.676Z,2.50
2023-02-16T16:34:32.543Z,2.47
2023-02-16T16:36:59.292Z,2.38
2023-02-16T16:39:26.026Z,2.50
2023-02-16T16:41:52.757Z,2.70
2023-02-16T16:44:19.507Z,2.80
2023-02-16T16:46:47.702Z,2.42
2023-02-16T16:49:14.535Z,2.50
2023-02-16T16:51:41.270Z,2.63
2023-02-16T16:54:08.021Z,2.53
2023-02-16T16:56:34.788Z,2.33
2023-02-16T16:59:01.533Z,2.38
2023-02-16T17:01:28.349Z,2.80
2023-02-16T17:03:55.171Z,3.10
2023-02-16T17:06:22.137Z,3.22
2023-02-16T17:08:48.900Z,2.92
2023-02-16T17:11:15.781Z,3.10
2023-02-16T17:13:42.475Z,2.83
2023-02-16T17:16:09.235Z,2.58
2023-02-16T17:18:36.156Z,3.05
2023-02-16T17:21:02.921Z,2.83
2023-02-16T17:23:29.627Z,3.33
2023-02-16T17:25:56.339Z,3.40
2023-02-16T17:28:23.126Z,3.38
2023-02-16T17:30:49.933Z,3.42
2023-02-16T17:33:16.685Z,3.80
2023-02-16T17:35:43.499Z,4.50
2023-02-16T17:38:10.352Z,4.40
2023-02-16T17:40:37.415Z,5.07
2023-02-16T17:43:04.457Z,4.70
2023-02-16T17:45:31.445Z,4.80
2023-02-16T17:48:02.359Z,5.05
2023-02-16T17:50:30.505Z,5.40
2023-02-16T17:52:57.734Z,5.75
2023-02-16T17:55:24.623Z,5.88
2023-02-16T17:57:51.594Z,5.60
2023-02-16T18:00:18.576Z,5.82
2023-02-16T18:02:45.550Z,7.03
2023-02-16T18:05:12.402Z,6.95
2023-02-16T18:07:39.383Z,7.25
2023-02-16T18:10:06.398Z,6.88
2023-02-16T18:12:33.426Z,7.40
2023-02-16T18:15:00.311Z,6.97
2023-02-16T18:17:27.164Z,6.85
2023-02-16T18:19:54.197Z,7.40
2023-02-16T18:22:21.177Z,7.50
2023-02-16T18:24:48.119Z,7.32
2023-02-16T18:27:15.176Z,7.00
2023-02-16T18:29:42.102Z,7.28
2023-02-16T18:32:09.056Z,7.63
2023-02-16T18:34:37.572Z,8.18
2023-02-16T18:37:04.573Z,7.40
2023-02-16T18:39:31.708Z,7.55
2023-02-16T18:41:58.799Z,7.32
2023-02-16T18:44:25.671Z,7.97
2023-02-16T18:46:52.738Z,8.43
2023-02-16T18:49:19.803Z,8.60
2023-02-16T18:51:46.895Z,8.15
2023-02-16T18:54:14.022Z,8.82
2023-02-16T18:56:41.514Z,9.07
2023-02-16T18:59:08.592Z,9.65
2023-02-16T19:01:35.513Z,9.98
2023-02-16T19:04:02.599Z,10.57
2023-02-16T19:06:29.674Z,10.07
2023-02-16T19:08:58.607Z,9.57
2023-02-16T19:11:25.814Z,10.73
2023-02-16T19:13:52.659Z,10.20
2023-02-16T19:16:19.499Z,10.65
2023-02-16T19:18:48.772Z,10.65
2023-02-16T19:21:15.570Z,11.38
2023-02-16T19:23:42.322Z,12.25
2023-02-16T19:26:09.148Z,12.93
2023-02-16T19:28:35.898Z,12.68
2023-02-16T19:31:03.388Z,12.40
2023-02-16T19:33:31.235Z,12.93
2023-02-16T19:35:58.005Z,13.32
2023-02-16T19:38:24.689Z,13.52
2023-02-16T19:40:51.427Z,13.30
2023-02-16T19:43:18.219Z,13.23
2023-02-16T19:45:44.961Z,13.50
2023-02-16T19:48:11.662Z,12.73
2023-02-16T19:50:39.143Z,12.45
2023-02-16T19:53:05.876Z,10.90
2023-02-16T19:55:32.571Z,12.02
2023-02-16T19:57:59.369Z,8.48
2023-02-16T20:00:33.938Z,7.75
2023-02-16T20:03:01.040Z,7.05
2023-02-16T20:05:27.815Z,7.25
2023-02-16T20:07:54.510Z,6.82
2023-02-16T20:10:21.308Z,7.20
2023-02-16T20:12:48.010Z,7.57
2023-02-16T20:15:16.681Z,7.63
2023-02-16T20:17:43.410Z,7.90
2023-02-16T20:20:10.144Z,6.60
2023-02-16T20:22:36.895Z,5.97
2023-02-16T20:25:03.793Z,5.30
2023-02-16T20:27:30.477Z,4.57
2023-02-16T20:29:57.273Z,3.92
2023-02-16T20:32:24.259Z,4.00
2023-02-16T20:34:50.977Z,3.67
2023-02-16T20:37:18.770Z,3.60
2023-02-16T20:39:45.485Z,3.92
2023-02-16T20:42:12.250Z,3.20
2023-02-16T20:44:38.962Z,2.88
2023-02-16T20:47:08.097Z,3.13
2023-02-16T20:49:35.137Z,2.45
2023-02-16T20:52:02.043Z,2.67
2023-02-16T20:54:28.817Z,2.10
2023-02-16T20:56:55.532Z,1.90
2023-02-16T20:59:22.326Z,1.58
2023-02-16T21:01:51.176Z,1.30
2023-02-16T21:04:19.213Z,1.45
2023-02-16T21:06:45.899Z,1.23
2023-02-16T21:09:12.638Z,1.60
2023-02-16T21:11:39.576Z,1.48
2023-02-16T21:14:06.298Z,1.75
2023-02-16T21:16:33.054Z,1.52
2023-02-16T21:18:59.897Z,1.30
2023-02-16T21:21:26.654Z,2.33
2023-02-16T21:23:53.372Z,1.75
2023-02-16T21:26:20.150Z,3.30
2023-02-16T21:28:46.828Z,3.10
2023-02-16T21:31:13.811Z,2.95
2023-02-16T21:33:40.633Z,2.78
2023-02-16T21:36:07.562Z,2.50
2023-02-16T21:38:34.547Z,2.67
2023-02-16T21:41:19.768Z,2.60
2023-02-16T21:43:46.688Z,2.58
2023-02-16T21:46:13.631Z,3.03
2023-02-16T21:48:50.288Z,3.40
2023-02-16T21:51:17.067Z,3.75
2023-02-16T21:53:43.797Z,4.15
2023-02-16T21:56:16.853Z,5.30
2023-02-16T21:58:43.585Z,4.85
2023-02-16T22:01:10.283Z,4.53
2023-02-16T22:03:37.106Z,5.22
2023-02-16T22:06:04.241Z,4.32
2023-02-16T22:08:32.240Z,4.35
2023-02-16T22:10:59.143Z,4.28
2023-02-16T22:13:25.869Z,4.07
2023-02-16T22:15:52.570Z,4.15
2023-02-16T22:18:19.312Z,3.85
2023-02-16T22:20:46.251Z,3.53
2023-02-16T22:23:12.992Z,3.10
2023-02-16T22:25:40.413Z,2.70
2023-02-16T22:28:07.176Z,2.85
2023-02-16T22:30:33.930Z,2.60
2023-02-16T22:33:00.721Z,2.50
2023-02-16T22:35:27.474Z,2.45
2023-02-16T22:37:54.167Z,2.50
2023-02-16T22:40:20.889Z,2.10
2023-02-16T22:42:47.574Z,2.60
2023-02-16T22:45:14.313Z,2.35
2023-02-16T22:47:41.035Z,2.17
2023-02-16T22:50:07.728Z,2.15
2023-02-16T22:52:36.418Z,2.35
2023-02-16T22:55:03.162Z,2.58
2023-02-16T22:57:30.006Z,2.20
2023-02-16T22:59:56.708Z,2.35
2023-02-16T23:02:23.426Z,2.45
2023-02-16T23:04:50.223Z,2.80
2023-02-16T23:07:16.973Z,2.97
2023-02-16T23:09:43.706Z,2.90
2023-02-16T23:12:11.640Z,2.80
2023-02-16T23:14:38.575Z,2.75
2023-02-16T23:17:05.387Z,3.17
2023-02-16T23:19:33.430Z,2.80
2023-02-16T23:22:00.206Z,2.92
2023-02-16T23:24:26.976Z,2.80
2023-02-16T23:26:53.715Z,3.20
2023-02-16T23:29:20.425Z,3.10
2023-02-16T23:31:47.332Z,2.80
2023-02-16T23:34:14.070Z,2.67
2023-02-16T23:36:40.812Z,2.75
2023-02-16T23:39:07.546Z,3.08
2023-02-16T23:41:34.252Z,2.85
2023-02-16T23:44:01.364Z,2.92
2023-02-16T23:46:28.190Z,2.70
2023-02-16T23:48:55.005Z,2.50
2023-02-16T23:51:21.773Z,2.67
2023-02-16T23:53:48.515Z,2.40
2023-02-16T23:56:15.272Z,1.70
2023-02-16T23:58:41.977Z,2.55
